createdAt,value
2023-05-11T00:01:59.537Z,100153.22
2023-05-11T00:07:00.444Z,100143.88
2023-05-11T00:12:01.700Z,100149.50
2023-05-11T00:17:03.718Z,100147.00
2023-05-11T00:22:04.641Z,100153.47
2023-05-11T00:27:06.098Z,100144.81
2023-05-11T00:32:08.128Z,100144.00
2023-05-11T00:37:08.764Z,100138.28
2023-05-11T00:42:09.578Z,100134.72
2023-05-11T00:47:11.685Z,100136.53
2023-05-11T00:52:12.788Z,100140.94
2023-05-11T00:57:13.595Z,100138.59
2023-05-11T01:02:15.790Z,100147.38
2023-05-11T01:07:22.360Z,100140.75
2023-05-11T01:12:31.149Z,100142.38
2023-05-11T01:17:44.152Z,100139.00
2023-05-11T01:23:20.658Z,100140.13
2023-05-11T01:28:43.720Z,100150.69
2023-05-11T01:33:54.990Z,100145.50
2023-05-11T01:38:59.667Z,100144.91
2023-05-11T01:44:04.494Z,100151.19
2023-05-11T01:49:07.866Z,100149.66
2023-05-11T01:54:10.147Z,100149.59
2023-05-11T01:59:14.317Z,100148.75
2023-05-11T02:04:19.885Z,100150.50
2023-05-11T02:09:24.103Z,100150.69
2023-05-11T02:14:26.592Z,100151.78
2023-05-11T02:19:30.395Z,100150.06
2023-05-11T02:24:32.265Z,100158.75
2023-05-11T02:29:33.458Z,100158.00
2023-05-11T02:34:41.638Z,100151.13
2023-05-11T02:39:47.019Z,100152.22
2023-05-11T02:44:55.830Z,100159.19
2023-05-11T02:50:02.443Z,100160.28
2023-05-11T02:55:07.290Z,100155.94
2023-05-11T03:00:11.649Z,100157.50
2023-05-11T03:05:13.920Z,100161.06
2023-05-11T03:10:15.617Z,100160.28
2023-05-11T03:15:20.225Z,100152.50
2023-05-11T03:20:25.045Z,100153.31
2023-05-11T03:25:26.089Z,100154.09
2023-05-11T03:30:29.098Z,100154.97
2023-05-11T03:35:35.843Z,100154.88
2023-05-11T03:40:39.858Z,100149.41
2023-05-11T03:45:43.894Z,100158.75
2023-05-11T03:50:46.285Z,100155.13
2023-05-11T03:55:47.243Z,100165.31
2023-05-11T04:00:48.184Z,100162.34
2023-05-11T04:05:50.168Z,100161.97
2023-05-11T04:10:50.886Z,100160.75
2023-05-11T04:15:54.244Z,100162.00
2023-05-11T04:20:56.675Z,100153.66
2023-05-11T04:25:57.831Z,100167.13
2023-05-11T04:30:58.762Z,100158.44
2023-05-11T04:36:01.377Z,100157.38
2023-05-11T04:41:04.764Z,100159.97
2023-05-11T04:46:05.685Z,100157.75
2023-05-11T04:51:08.158Z,100166.16
2023-05-11T04:56:14.145Z,100165.41
2023-05-11T05:01:16.026Z,100167.34
2023-05-11T05:06:18.182Z,100167.56
2023-05-11T05:11:18.884Z,100160.66
2023-05-11T05:16:19.698Z,100164.75
2023-05-11T05:21:21.736Z,100164.97
2023-05-11T05:26:23.118Z,100162.47
2023-05-11T05:31:25.473Z,100170.78
2023-05-11T05:36:28.245Z,100167.31
2023-05-11T05:41:29.034Z,100169.75
2023-05-11T05:46:31.236Z,100174.47
2023-05-11T05:51:33.733Z,100170.63
2023-05-11T05:56:35.179Z,100174.81
2023-05-11T06:01:36.647Z,100169.81
2023-05-11T06:06:39.184Z,100168.34
2023-05-11T06:11:40.185Z,100165.63
2023-05-11T06:16:41.337Z,100166.84
2023-05-11T06:21:45.283Z,100167.69
2023-05-11T06:26:47.547Z,100169.50
2023-05-11T06:31:52.856Z,100163.91
2023-05-11T06:36:55.395Z,100165.13
2023-05-11T06:41:57.489Z,100163.56
2023-05-11T06:47:02.536Z,100169.25
2023-05-11T06:52:04.885Z,100161.41
2023-05-11T06:57:05.518Z,100158.28
2023-05-11T07:02:06.193Z,100155.19
2023-05-11T07:07:08.994Z,100153.19
2023-05-11T07:12:09.641Z,100152.97
2023-05-11T07:17:10.381Z,100161.00
2023-05-11T07:22:14.904Z,100157.63
2023-05-11T07:27:16.082Z,100161.25
2023-05-11T07:32:16.733Z,100156.84
2023-05-11T07:37:18.730Z,100169.31
2023-05-11T07:42:19.386Z,100156.66
2023-05-11T07:47:20.980Z,100155.03
2023-05-11T07:52:23.072Z,100161.22
2023-05-11T07:57:23.751Z,100161.66
2023-05-11T08:02:24.619Z,100160.47
2023-05-11T08:07:26.849Z,100162.25
2023-05-11T08:12:27.595Z,100165.41
2023-05-11T08:17:28.396Z,100170.44
2023-05-11T08:22:30.915Z,100156.50
2023-05-11T08:27:31.595Z,100175.16
2023-05-11T08:32:36.217Z,100168.28
2023-05-11T08:37:45.605Z,100165.03
2023-05-11T08:42:49.189Z,100162.25
2023-05-11T08:47:50.831Z,100164.03
2023-05-11T08:52:52.977Z,100160.94
2023-05-11T08:57:54.864Z,100157.75
2023-05-11T09:02:56.378Z,100154.44
2023-05-11T09:08:02.128Z,100158.31
2023-05-11T09:13:02.850Z,100158.41
2023-05-11T09:18:05.702Z,100144.50
2023-05-11T09:23:08.458Z,100143.38
2023-05-11T09:28:15.916Z,100149.53
2023-05-11T09:33:24.586Z,100141.28
2023-05-11T09:38:26.835Z,100136.47
2023-05-11T09:43:28.985Z,100141.06
2023-05-11T09:48:31.842Z,100133.09
2023-05-11T09:53:40.836Z,100132.41
2023-05-11T09:58:49.749Z,100134.03
2023-05-11T10:03:58.160Z,100124.31
2023-05-11T10:09:11.566Z,100136.09
2023-05-11T10:14:13.773Z,100122.50
2023-05-11T10:19:14.649Z,100129.38
2023-05-11T10:24:19.693Z,100122.69
2023-05-11T10:29:22.617Z,100119.72
2023-05-11T10:34:24.564Z,100123.69
2023-05-11T10:39:26.971Z,100118.06
2023-05-11T10:44:51.985Z,100123.34
2023-05-11T10:50:13.347Z,100121.88
2023-05-11T10:55:28.689Z,100114.97
2023-05-11T11:01:21.887Z,100115.75
2023-05-11T11:06:24.123Z,100121.53
2023-05-11T11:11:37.097Z,100123.53
2023-05-11T11:16:38.936Z,100111.38
2023-05-11T11:21:44.193Z,100106.78
2023-05-11T11:26:50.615Z,100117.19
2023-05-11T11:31:51.422Z,100119.91
2023-05-11T11:37:09.653Z,100115.31
2023-05-11T11:42:13.291Z,100106.31
2023-05-11T11:47:16.300Z,100113.50
2023-05-11T11:52:34.579Z,100123.44
2023-05-11T11:57:51.090Z,100132.16
2023-05-11T12:02:52.543Z,100129.06
2023-05-11T12:07:54.211Z,100135.66
2023-05-11T12:13:00.003Z,100132.16
2023-05-11T12:18:02.848Z,100137.09
2023-05-11T12:23:03.721Z,100146.63
2023-05-11T12:28:05.980Z,100147.22
2023-05-11T12:33:10.206Z,100142.97
2023-05-11T12:38:12.440Z,100137.84
2023-05-11T12:43:18.438Z,100148.50
2023-05-11T12:48:19.315Z,100148.28
2023-05-11T12:53:21.078Z,100157.78
2023-05-11T12:58:23.210Z,100160.56
2023-05-11T13:03:24.769Z,100166.13
2023-05-11T13:08:25.522Z,100154.69
2023-05-11T13:13:30.807Z,100155.41
2023-05-11T13:18:31.531Z,100145.28
2023-05-11T13:23:32.374Z,100154.50
2023-05-11T13:28:35.000Z,100136.63
2023-05-11T13:33:35.837Z,100130.34
2023-05-11T13:38:36.522Z,100125.75
2023-05-11T13:43:38.605Z,100118.69
2023-05-11T13:48:39.221Z,100114.16
2023-05-11T13:53:39.860Z,100112.09
2023-05-11T13:58:44.895Z,100106.94
2023-05-11T14:03:45.687Z,100102.91
2023-05-11T14:08:46.358Z,100100.50
2023-05-11T14:13:48.678Z,100095.38
2023-05-11T14:18:50.568Z,100092.41
2023-05-11T14:24:09.848Z,100093.47
2023-05-11T14:29:13.172Z,100088.78
2023-05-11T14:34:14.492Z,100079.03
2023-05-11T14:39:15.207Z,100078.97
2023-05-11T14:44:17.309Z,100072.34
2023-05-11T14:49:18.093Z,100076.47
2023-05-11T14:54:18.750Z,100083.44
2023-05-11T14:59:20.904Z,100072.69
2023-05-11T15:04:22.371Z,100090.19
2023-05-11T15:09:24.052Z,100093.13
2023-05-11T15:14:26.680Z,100096.34
2023-05-11T15:19:27.345Z,100102.75
2023-05-11T15:24:28.015Z,100112.38
2023-05-11T15:29:30.120Z,100110.44
2023-05-11T15:34:30.800Z,100107.53
2023-05-11T15:39:31.500Z,100116.97
2023-05-11T15:44:33.758Z,100119.44
2023-05-11T15:49:34.462Z,100120.25
2023-05-11T15:54:36.102Z,100121.44
2023-05-11T15:59:38.500Z,100122.56
2023-05-11T16:04:39.220Z,100122.97
2023-05-11T16:09:39.953Z,100123.78
2023-05-11T16:14:42.013Z,100124.25
2023-05-11T16:19:42.683Z,100123.63
2023-05-11T16:24:43.374Z,100126.25
2023-05-11T16:29:45.722Z,100133.38
2023-05-11T16:34:46.460Z,100127.72
2023-05-11T16:39:47.173Z,100121.25
2023-05-11T16:44:49.194Z,100127.56
2023-05-11T16:49:49.989Z,100132.88
2023-05-11T16:54:50.704Z,100147.09
2023-05-11T16:59:52.833Z,100146.16
2023-05-11T17:04:53.511Z,100148.06
2023-05-11T17:09:57.056Z,100156.94
2023-05-11T17:14:59.988Z,100154.69
2023-05-11T17:20:01.299Z,100159.44
2023-05-11T17:25:03.527Z,100164.81
2023-05-11T17:30:06.762Z,100165.59
2023-05-11T17:35:09.240Z,100164.53
2023-05-11T17:40:10.719Z,100172.28
2023-05-11T17:45:13.989Z,100177.19
2023-05-11T17:50:14.680Z,100184.91
2023-05-11T17:55:15.338Z,100191.91
2023-05-11T18:00:18.144Z,100197.94
2023-05-11T18:05:18.972Z,100206.72
2023-05-11T18:10:19.748Z,100208.81
2023-05-11T18:15:22.013Z,100218.78
2023-05-11T18:20:22.765Z,100225.25
2023-05-11T18:25:23.728Z,100230.97
2023-05-11T18:30:25.975Z,100241.63
2023-05-11T18:35:26.972Z,100237.72
2023-05-11T18:40:27.766Z,100239.69
2023-05-11T18:45:30.729Z,100246.19
2023-05-11T18:50:31.582Z,100250.63
2023-05-11T18:55:41.008Z,100258.88
2023-05-11T19:00:52.499Z,100270.97
2023-05-11T19:05:53.301Z,100270.41
2023-05-11T19:10:54.039Z,100282.31
2023-05-11T19:15:56.073Z,100288.75
2023-05-11T19:20:56.731Z,100297.56
2023-05-11T19:25:57.392Z,100288.56
2023-05-11T19:31:03.403Z,100302.31
2023-05-11T19:36:04.540Z,100301.91
2023-05-11T19:41:05.352Z,100305.03
2023-05-11T19:46:07.939Z,100305.53
2023-05-11T19:51:08.694Z,100303.34
2023-05-11T19:56:09.364Z,100302.84
2023-05-11T20:01:11.465Z,100309.88
2023-05-11T20:06:12.371Z,100317.09
2023-05-11T20:11:13.042Z,100321.53
2023-05-11T20:16:15.298Z,100312.44
2023-05-11T20:21:16.684Z,100303.97
2023-05-11T20:26:17.878Z,100307.75
2023-05-11T20:31:21.538Z,100311.38
2023-05-11T20:36:22.305Z,100323.84
2023-05-11T20:41:23.254Z,100315.00
2023-05-11T20:46:25.439Z,100313.38
2023-05-11T20:51:26.221Z,100311.88
2023-05-11T20:56:27.090Z,100306.03
2023-05-11T21:01:31.193Z,100305.31
2023-05-11T21:06:32.805Z,100307.19
2023-05-11T21:11:33.499Z,100316.41
2023-05-11T21:16:35.702Z,100315.56
2023-05-11T21:21:36.777Z,100316.03
2023-05-11T21:26:37.692Z,100313.47
2023-05-11T21:31:39.857Z,100311.03
2023-05-11T21:36:41.463Z,100319.84
2023-05-11T21:41:42.443Z,100313.19
2023-05-11T21:46:44.542Z,100317.59
2023-05-11T21:51:45.227Z,100317.75
2023-05-11T21:56:45.866Z,100321.47
2023-05-11T22:01:49.203Z,100324.66
2023-05-11T22:06:49.918Z,100331.50
2023-05-11T22:11:50.563Z,100337.47
2023-05-11T22:16:52.553Z,100332.44
2023-05-11T22:21:53.444Z,100326.56
2023-05-11T22:26:54.412Z,100323.75
2023-05-11T22:31:56.476Z,100333.63
2023-05-11T22:36:57.225Z,100325.66
2023-05-11T22:41:58.175Z,100327.66
2023-05-11T22:47:00.194Z,100333.56
2023-05-11T22:52:00.850Z,100345.06
2023-05-11T22:57:03.459Z,100337.00
2023-05-11T23:02:05.752Z,100331.47
2023-05-11T23:07:07.825Z,100328.56
2023-05-11T23:12:09.217Z,100319.38
2023-05-11T23:17:11.239Z,100324.63
2023-05-11T23:22:11.959Z,100326.63
2023-05-11T23:27:12.581Z,100329.69
2023-05-11T23:32:15.244Z,100330.13
2023-05-11T23:37:16.856Z,100328.59
2023-05-11T23:42:17.561Z,100334.28
2023-05-11T23:47:19.735Z,100326.19
2023-05-11T23:52:20.411Z,100332.00
2023-05-11T23:57:21.048Z,100321.03
